首页
METAR-TAF:

METAR-TAF

机场 :

伊萨卡, 紐約州, 美国

纬度: 42-29N, 经度: 076-27W, 海拔: 335米

当前天气观测

该预报发布于21分钟前的07:36 UTC
风速5节,风向东南
温度 8°C
湿度 100%
气压 1002 hPa
能見度: 16.1公里
散云层高于1200英尺
多云层高于2000英尺
阴天层高于6000英尺
小雨

METAR: KITH 100736Z AUTO 13005KT 10SM -RA SCT012 BKN020 OVC060 08/08 A2960 RMK AO2 P0005

时间: 02:57 (07:57 UTC)

预报

该预报发布于2小时和20分钟前的05:37 UTC
预报有效从10日的 06点(UTC)到 11日的 06点(UTC)
风速11节,风向
能見度: 9.7公里
阴天层高于1100英尺
小雨, 轻雾
从 10日的 1200点(UTC)
风速9节,风向西南
能見度: 10公里
散云层高于2200英尺
阴天层高于2700英尺
从 10日的 1800点(UTC)
风速10节,风向西转西北,有时为15节阵风
能見度: 10公里
阴天层高于2500英尺
从 11日的 0200点(UTC)
风速2节,风向多变
能見度: 10公里
阴天层高于3500英尺

TAF: KITH 100537Z 1006/1106 19011KT 6SM -RA BR OVC011 WS020/24040KT FM101200 23009KT P6SM SCT022 OVC027 FM101800 29010G15KT P6SM OVC025 FM110200 VRB02KT P6SM OVC035

超过4000个机场的气象观测和天气预报(METAR&TAF报告)。

可查询的气象台以黄色和红色小点在地图上表示。

将鼠标移到小点上方,可查看气象台名称。

然后点击查看天气观测和预报。

如需切换地图:点击带黑十字的绿色按钮放大地图;点击带横线的绿色按钮缩小地图;或者点击绿色箭头查看邻近地区的地图。


METAR-TAF: